sensor_id;sensor_type;location;lat;lon;timestamp;temperature;humidity
59282;DHT22;45054;52.062;10.010;2024-01-06T00:00:14;7.20;99.90
59282;DHT22;45054;52.062;10.010;2024-01-06T00:02:40;7.20;99.90
59282;DHT22;45054;52.062;10.010;2024-01-06T00:05:06;7.20;99.90
59282;DHT22;45054;52.062;10.010;2024-01-06T00:07:31;7.20;99.90
59282;DHT22;45054;52.062;10.010;2024-01-06T00:09:57;7.20;99.90
59282;DHT22;45054;52.062;10.010;2024-01-06T00:12:24;7.10;99.90
59282;DHT22;45054;52.062;10.010;2024-01-06T00:14:49;7.10;99.90
59282;DHT22;45054;52.062;10.010;2024-01-06T00:17:15;7.10;99.90
59282;DHT22;45054;52.062;10.010;2024-01-06T00:19:41;7.10;99.90
59282;DHT22;45054;52.062;10.010;2024-01-06T00:22:07;7.10;99.90
59282;DHT22;45054;52.062;10.010;2024-01-06T00:24:33;7.10;99.90
59282;DHT22;45054;52.062;10.010;2024-01-06T00:26:58;7.20;99.90
59282;DHT22;45054;52.062;10.010;2024-01-06T00:29:25;7.20;99.90
59282;DHT22;45054;52.062;10.010;2024-01-06T00:31:51;7.20;99.90
59282;DHT22;45054;52.062;10.010;2024-01-06T00:34:16;7.10;99.90
59282;DHT22;45054;52.062;10.010;2024-01-06T00:36:42;7.20;99.90
59282;DHT22;45054;52.062;10.010;2024-01-06T00:39:07;7.10;99.90
59282;DHT22;45054;52.062;10.010;2024-01-06T00:41:33;7.10;99.90
59282;DHT22;45054;52.062;10.010;2024-01-06T00:43:58;7.10;99.90
59282;DHT22;45054;52.062;10.010;2024-01-06T00:46:25;7.10;99.90
59282;DHT22;45054;52.062;10.010;2024-01-06T00:48:51;7.10;99.90
59282;DHT22;45054;52.062;10.010;2024-01-06T00:51:16;7.00;99.90
59282;DHT22;45054;52.062;10.010;2024-01-06T00:53:42;7.00;99.90
59282;DHT22;45054;52.062;10.010;2024-01-06T00:56:07;7.00;99.90
59282;DHT22;45054;52.062;10.010;2024-01-06T00:58:33;7.00;99.90
59282;DHT22;45054;52.062;10.010;2024-01-06T01:00:59;6.90;99.90
59282;DHT22;45054;52.062;10.010;2024-01-06T01:03:26;6.90;99.90
59282;DHT22;45054;52.062;10.010;2024-01-06T01:05:51;7.00;99.90
59282;DHT22;45054;52.062;10.010;2024-01-06T01:08:17;6.80;99.90
59282;DHT22;45054;52.062;10.010;2024-01-06T01:10:42;6.80;99.90
59282;DHT22;45054;52.062;10.010;2024-01-06T01:13:08;6.80;99.90
59282;DHT22;45054;52.062;10.010;2024-01-06T01:15:34;6.90;99.90
59282;DHT22;45054;52.062;10.010;2024-01-06T01:17:59;6.90;99.90
59282;DHT22;45054;52.062;10.010;2024-01-06T01:20:26;6.90;99.90
59282;DHT22;45054;52.062;10.010;2024-01-06T01:22:52;6.80;99.90
59282;DHT22;45054;52.062;10.010;2024-01-06T01:25:17;6.80;99.90
59282;DHT22;45054;52.062;10.010;2024-01-06T01:27:43;6.70;99.90
59282;DHT22;45054;52.062;10.010;2024-01-06T01:30:09;6.70;99.90
59282;DHT22;45054;52.062;10.010;2024-01-06T01:32:35;6.70;99.90
59282;DHT22;45054;52.062;10.010;2024-01-06T01:35:01;6.60;99.90
59282;DHT22;45054;52.062;10.010;2024-01-06T01:37:27;6.60;99.90
59282;DHT22;45054;52.062;10.010;2024-01-06T01:39:55;6.60;99.90
59282;DHT22;45054;52.062;10.010;2024-01-06T01:42:20;6.60;99.90
59282;DHT22;45054;52.062;10.010;2024-01-06T01:44:46;6.60;99.90
59282;DHT22;45054;52.062;10.010;2024-01-06T01:47:11;6.60;99.90
59282;DHT22;45054;52.062;10.010;2024-01-06T01:49:37;6.60;99.90
59282;DHT22;45054;52.062;10.010;2024-01-06T01:52:04;6.50;99.90
59282;DHT22;45054;52.062;10.010;2024-01-06T01:54:31;6.50;99.90
59282;DHT22;45054;52.062;10.010;2024-01-06T01:56:56;6.50;99.90
59282;DHT22;45054;52.062;10.010;2024-01-06T01:59:22;6.50;99.90
59282;DHT22;45054;52.062;10.010;2024-01-06T02:01:48;6.50;99.90
59282;DHT22;45054;52.062;10.010;2024-01-06T02:04:13;6.40;99.90
59282;DHT22;45054;52.062;10.010;2024-01-06T02:06:39;6.40;99.90
59282;DHT22;45054;52.062;10.010;2024-01-06T02:09:04;6.40;99.90
59282;DHT22;45054;52.062;10.010;2024-01-06T02:11:32;6.40;99.90
59282;DHT22;45054;52.062;10.010;2024-01-06T02:13:57;6.40;99.90
59282;DHT22;45054;52.062;10.010;2024-01-06T02:16:23;6.40;99.90
59282;DHT22;45054;52.062;10.010;2024-01-06T02:18:48;6.40;99.90
59282;DHT22;45054;52.062;10.010;2024-01-06T02:21:14;6.40;99.90
59282;DHT22;45054;52.062;10.010;2024-01-06T02:23:42;6.40;99.90
59282;DHT22;45054;52.062;10.010;2024-01-06T02:26:07;6.50;99.90
59282;DHT22;45054;52.062;10.010;2024-01-06T02:28:33;6.50;99.90
59282;DHT22;45054;52.062;10.010;2024-01-06T02:30:58;6.50;99.90
59282;DHT22;45054;52.062;10.010;2024-01-06T02:33:24;6.50;99.90
59282;DHT22;45054;52.062;10.010;2024-01-06T02:35:49;6.50;99.90
59282;DHT22;45054;52.062;10.010;2024-01-06T02:38:15;6.50;99.90
59282;DHT22;45054;52.062;10.010;2024-01-06T02:40:42;6.50;99.90
59282;DHT22;45054;52.062;10.010;2024-01-06T02:43:07;6.50;99.90
59282;DHT22;45054;52.062;10.010;2024-01-06T02:45:33;6.50;99.90
59282;DHT22;45054;52.062;10.010;2024-01-06T02:47:59;6.50;99.90
59282;DHT22;45054;52.062;10.010;2024-01-06T02:50:24;6.50;99.90
59282;DHT22;45054;52.062;10.010;2024-01-06T02:52:50;6.50;99.90
59282;DHT22;45054;52.062;10.010;2024-01-06T02:55:15;6.50;99.90
59282;DHT22;45054;52.062;10.010;2024-01-06T02:57:42;6.50;99.90
59282;DHT22;45054;52.062;10.010;2024-01-06T03:00:09;6.50;99.90
59282;DHT22;45054;52.062;10.010;2024-01-06T03:02:35;6.50;99.90
59282;DHT22;45054;52.062;10.010;2024-01-06T03:05:00;6.50;99.90
59282;DHT22;45054;52.062;10.010;2024-01-06T03:07:26;6.50;99.90
59282;DHT22;45054;52.062;10.010;2024-01-06T03:09:51;6.50;99.90
59282;DHT22;45054;52.062;10.010;2024-01-06T03:12:17;6.50;99.90
59282;DHT22;45054;52.062;10.010;2024-01-06T03:14:44;6.50;99.90
59282;DHT22;45054;52.062;10.010;2024-01-06T03:17:09;6.50;99.90
59282;DHT22;45054;52.062;10.010;2024-01-06T03:19:35;6.50;99.90
59282;DHT22;45054;52.062;10.010;2024-01-06T03:22:01;6.50;99.90
59282;DHT22;45054;52.062;10.010;2024-01-06T03:24:27;6.50;99.90
59282;DHT22;45054;52.062;10.010;2024-01-06T03:26:52;6.50;99.90
59282;DHT22;45054;52.062;10.010;2024-01-06T03:29:18;6.40;99.90
59282;DHT22;45054;52.062;10.010;2024-01-06T03:31:45;6.40;99.90
59282;DHT22;45054;52.062;10.010;2024-01-06T03:34:11;6.40;99.90
59282;DHT22;45054;52.062;10.010;2024-01-06T03:36:37;6.40;99.90
59282;DHT22;45054;52.062;10.010;2024-01-06T03:39:02;6.40;99.90
59282;DHT22;45054;52.062;10.010;2024-01-06T03:41:28;6.40;99.90
59282;DHT22;45054;52.062;10.010;2024-01-06T03:43:53;6.50;99.90
59282;DHT22;45054;52.062;10.010;2024-01-06T03:46:19;6.50;99.90
59282;DHT22;45054;52.062;10.010;2024-01-06T03:48:46;6.50;99.90
59282;DHT22;45054;52.062;10.010;2024-01-06T03:51:12;6.50;99.90
59282;DHT22;45054;52.062;10.010;2024-01-06T03:53:38;6.50;99.90
59282;DHT22;45054;52.062;10.010;2024-01-06T03:56:04;6.50;99.90
59282;DHT22;45054;52.062;10.010;2024-01-06T03:58:30;6.40;99.90
59282;DHT22;45054;52.062;10.010;2024-01-06T04:00:55;6.40;99.90
59282;DHT22;45054;52.062;10.010;2024-01-06T04:03:21;6.30;99.90
59282;DHT22;45054;52.062;10.010;2024-01-06T04:05:48;6.30;99.90
59282;DHT22;45054;52.062;10.010;2024-01-06T04:08:13;6.30;99.90
59282;DHT22;45054;52.062;10.010;2024-01-06T04:10:39;6.30;99.90
59282;DHT22;45054;52.062;10.010;2024-01-06T04:13:05;6.30;99.90
59282;DHT22;45054;52.062;10.010;2024-01-06T04:15:30;6.30;99.90
59282;DHT22;45054;52.062;10.010;2024-01-06T04:17:56;6.40;99.90
59282;DHT22;45054;52.062;10.010;2024-01-06T04:20:21;6.40;99.90
59282;DHT22;45054;52.062;10.010;2024-01-06T04:22:48;6.40;99.90
59282;DHT22;45054;52.062;10.010;2024-01-06T04:25:14;6.40;99.90
59282;DHT22;45054;52.062;10.010;2024-01-06T04:27:39;6.40;99.90
59282;DHT22;45054;52.062;10.010;2024-01-06T04:30:06;6.40;99.90
59282;DHT22;45054;52.062;10.010;2024-01-06T04:32:31;6.40;99.90
59282;DHT22;45054;52.062;10.010;2024-01-06T04:34:57;6.40;99.90
59282;DHT22;45054;52.062;10.010;2024-01-06T04:37:22;6.50;99.90
59282;DHT22;45054;52.062;10.010;2024-01-06T04:39:49;6.50;99.90
59282;DHT22;45054;52.062;10.010;2024-01-06T04:42:15;6.50;99.90
59282;DHT22;45054;52.062;10.010;2024-01-06T04:44:40;6.50;99.90
59282;DHT22;45054;52.062;10.010;2024-01-06T04:47:06;6.40;99.90
59282;DHT22;45054;52.062;10.010;2024-01-06T04:49:31;6.40;99.90
59282;DHT22;45054;52.062;10.010;2024-01-06T04:51:57;6.50;99.90
59282;DHT22;45054;52.062;10.010;2024-01-06T04:54:22;6.50;99.90
59282;DHT22;45054;52.062;10.010;2024-01-06T04:56:49;6.40;99.90
59282;DHT22;45054;52.062;10.010;2024-01-06T04:59:15;6.40;99.90
59282;DHT22;45054;52.062;10.010;2024-01-06T05:01:41;6.40;99.90
59282;DHT22;45054;52.062;10.010;2024-01-06T05:04:06;6.40;99.90
59282;DHT22;45054;52.062;10.010;2024-01-06T05:06:32;6.50;99.90
59282;DHT22;45054;52.062;10.010;2024-01-06T05:08:57;6.50;99.90
59282;DHT22;45054;52.062;10.010;2024-01-06T05:11:23;6.50;99.90
59282;DHT22;45054;52.062;10.010;2024-01-06T05:13:50;6.50;99.90
59282;DHT22;45054;52.062;10.010;2024-01-06T05:16:16;6.50;99.90
59282;DHT22;45054;52.062;10.010;2024-01-06T05:18:41;6.40;99.90
59282;DHT22;45054;52.062;10.010;2024-01-06T05:21:07;6.50;99.90
59282;DHT22;45054;52.062;10.010;2024-01-06T05:23:32;6.40;99.90
59282;DHT22;45054;52.062;10.010;2024-01-06T05:25:58;6.50;99.90
59282;DHT22;45054;52.062;10.010;2024-01-06T05:28:23;6.40;99.90
59282;DHT22;45054;52.062;10.010;2024-01-06T05:30:50;6.40;99.90
59282;DHT22;45054;52.062;10.010;2024-01-06T05:33:16;6.40;99.90
59282;DHT22;45054;52.062;10.010;2024-01-06T05:35:42;6.40;99.90
59282;DHT22;45054;52.062;10.010;2024-01-06T05:38:07;6.40;99.90
59282;DHT22;45054;52.062;10.010;2024-01-06T05:40:33;6.40;99.90
59282;DHT22;45054;52.062;10.010;2024-01-06T05:42:58;6.40;99.90
59282;DHT22;45054;52.062;10.010;2024-01-06T05:45:24;6.40;99.90
59282;DHT22;45054;52.062;10.010;2024-01-06T05:47:51;6.40;99.90
59282;DHT22;45054;52.062;10.010;2024-01-06T05:50:17;6.30;99.90
59282;DHT22;45054;52.062;10.010;2024-01-06T05:52:42;6.20;99.90
59282;DHT22;45054;52.062;10.010;2024-01-06T05:55:08;6.20;99.90
59282;DHT22;45054;52.062;10.010;2024-01-06T05:57:34;6.20;99.90
59282;DHT22;45054;52.062;10.010;2024-01-06T06:00:00;6.20;99.90
59282;DHT22;45054;52.062;10.010;2024-01-06T06:02:25;6.10;99.90
59282;DHT22;45054;52.062;10.010;2024-01-06T06:04:52;6.10;99.90
59282;DHT22;45054;52.062;10.010;2024-01-06T06:07:18;6.20;99.90
59282;DHT22;45054;52.062;10.010;2024-01-06T06:09:44;6.20;99.90
59282;DHT22;45054;52.062;10.010;2024-01-06T06:12:10;6.20;99.90
59282;DHT22;45054;52.062;10.010;2024-01-06T06:14:36;6.20;99.90
59282;DHT22;45054;52.062;10.010;2024-01-06T06:17:01;6.20;99.90
59282;DHT22;45054;52.062;10.010;2024-01-06T06:19:27;6.30;99.90
59282;DHT22;45054;52.062;10.010;2024-01-06T06:21:55;6.30;99.90
59282;DHT22;45054;52.062;10.010;2024-01-06T06:24:21;6.20;99.90
59282;DHT22;45054;52.062;10.010;2024-01-06T06:26:46;6.30;99.90
59282;DHT22;45054;52.062;10.010;2024-01-06T06:29:12;6.20;99.90
59282;DHT22;45054;52.062;10.010;2024-01-06T06:31:37;6.30;99.90
59282;DHT22;45054;52.062;10.010;2024-01-06T06:34:03;6.30;99.90
59282;DHT22;45054;52.062;10.010;2024-01-06T06:36:28;6.30;99.90
59282;DHT22;45054;52.062;10.010;2024-01-06T06:38:55;6.30;99.90
59282;DHT22;45054;52.062;10.010;2024-01-06T06:41:21;6.30;99.90
59282;DHT22;45054;52.062;10.010;2024-01-06T06:43:46;6.30;99.90
59282;DHT22;45054;52.062;10.010;2024-01-06T06:46:12;6.20;99.90
59282;DHT22;45054;52.062;10.010;2024-01-06T06:48:38;6.20;99.90
59282;DHT22;45054;52.062;10.010;2024-01-06T06:51:03;6.20;99.90
59282;DHT22;45054;52.062;10.010;2024-01-06T06:53:29;6.20;99.90
59282;DHT22;45054;52.062;10.010;2024-01-06T06:55:56;6.20;99.90
59282;DHT22;45054;52.062;10.010;2024-01-06T06:58:21;6.10;99.90
59282;DHT22;45054;52.062;10.010;2024-01-06T07:00:47;6.10;99.90
59282;DHT22;45054;52.062;10.010;2024-01-06T07:03:13;6.20;99.90
59282;DHT22;45054;52.062;10.010;2024-01-06T07:05:38;6.10;99.90
59282;DHT22;45054;52.062;10.010;2024-01-06T07:08:04;6.20;99.90
59282;DHT22;45054;52.062;10.010;2024-01-06T07:10:30;6.10;99.90
59282;DHT22;45054;52.062;10.010;2024-01-06T07:12:57;6.10;99.90
59282;DHT22;45054;52.062;10.010;2024-01-06T07:15:22;6.10;99.90
59282;DHT22;45054;52.062;10.010;2024-01-06T07:17:48;6.10;99.90
59282;DHT22;45054;52.062;10.010;2024-01-06T07:20:13;6.10;99.90
59282;DHT22;45054;52.062;10.010;2024-01-06T07:22:39;6.10;99.90
59282;DHT22;45054;52.062;10.010;2024-01-06T07:25:05;6.10;99.90
59282;DHT22;45054;52.062;10.010;2024-01-06T07:27:31;6.10;99.90
59282;DHT22;45054;52.062;10.010;2024-01-06T07:29:58;6.10;99.90
59282;DHT22;45054;52.062;10.010;2024-01-06T07:32:23;6.20;99.90
59282;DHT22;45054;52.062;10.010;2024-01-06T07:34:49;6.10;99.90
59282;DHT22;45054;52.062;10.010;2024-01-06T07:37:17;6.20;99.90
59282;DHT22;45054;52.062;10.010;2024-01-06T07:39:42;6.20;99.90
59282;DHT22;45054;52.062;10.010;2024-01-06T07:42:08;6.20;99.90
59282;DHT22;45054;52.062;10.010;2024-01-06T07:44:34;6.20;99.90
59282;DHT22;45054;52.062;10.010;2024-01-06T07:47:01;6.20;99.90
59282;DHT22;45054;52.062;10.010;2024-01-06T07:49:26;6.20;99.90
59282;DHT22;45054;52.062;10.010;2024-01-06T07:51:52;6.20;99.90
59282;DHT22;45054;52.062;10.010;2024-01-06T07:54:17;6.20;99.90
59282;DHT22;45054;52.062;10.010;2024-01-06T07:56:43;6.20;99.90
59282;DHT22;45054;52.062;10.010;2024-01-06T07:59:09;6.10;99.90
59282;DHT22;45054;52.062;10.010;2024-01-06T08:01:35;5.80;99.90
59282;DHT22;45054;52.062;10.010;2024-01-06T08:04:02;5.60;99.90
59282;DHT22;45054;52.062;10.010;2024-01-06T08:06:27;5.50;99.90
59282;DHT22;45054;52.062;10.010;2024-01-06T08:08:53;5.40;99.90
59282;DHT22;45054;52.062;10.010;2024-01-06T08:11:19;5.50;99.90
59282;DHT22;45054;52.062;10.010;2024-01-06T08:13:44;5.60;99.90
59282;DHT22;45054;52.062;10.010;2024-01-06T08:16:10;5.80;99.90
59282;DHT22;45054;52.062;10.010;2024-01-06T08:18:35;5.90;99.90
59282;DHT22;45054;52.062;10.010;2024-01-06T08:21:02;6.00;99.90
59282;DHT22;45054;52.062;10.010;2024-01-06T08:23:28;6.10;99.90
59282;DHT22;45054;52.062;10.010;2024-01-06T08:25:54;6.20;99.90
59282;DHT22;45054;52.062;10.010;2024-01-06T08:28:19;6.20;99.90
59282;DHT22;45054;52.062;10.010;2024-01-06T08:30:45;6.20;99.90
59282;DHT22;45054;52.062;10.010;2024-01-06T08:33:10;6.30;99.90
59282;DHT22;45054;52.062;10.010;2024-01-06T08:35:36;6.30;99.90
59282;DHT22;45054;52.062;10.010;2024-01-06T08:38:03;6.30;99.90
59282;DHT22;45054;52.062;10.010;2024-01-06T08:40:29;6.20;99.90
59282;DHT22;45054;52.062;10.010;2024-01-06T08:42:54;6.20;99.90
59282;DHT22;45054;52.062;10.010;2024-01-06T08:45:20;6.20;99.90
59282;DHT22;45054;52.062;10.010;2024-01-06T08:47:45;6.30;99.90
59282;DHT22;45054;52.062;10.010;2024-01-06T08:50:11;6.30;99.90
59282;DHT22;45054;52.062;10.010;2024-01-06T08:52:36;6.30;99.90
59282;DHT22;45054;52.062;10.010;2024-01-06T08:55:04;6.30;99.90
59282;DHT22;45054;52.062;10.010;2024-01-06T08:57:30;6.30;99.90
59282;DHT22;45054;52.062;10.010;2024-01-06T08:59:55;6.30;99.90
59282;DHT22;45054;52.062;10.010;2024-01-06T09:02:21;6.40;99.90
59282;DHT22;45054;52.062;10.010;2024-01-06T09:04:46;6.40;99.90
59282;DHT22;45054;52.062;10.010;2024-01-06T09:07:12;6.40;99.90
59282;DHT22;45054;52.062;10.010;2024-01-06T09:09:37;6.40;99.90
59282;DHT22;45054;52.062;10.010;2024-01-06T09:12:05;6.40;99.90
59282;DHT22;45054;52.062;10.010;2024-01-06T09:14:31;6.40;99.90
59282;DHT22;45054;52.062;10.010;2024-01-06T09:16:56;6.40;99.90
59282;DHT22;45054;52.062;10.010;2024-01-06T09:19:22;6.40;99.90
59282;DHT22;45054;52.062;10.010;2024-01-06T09:21:47;6.40;99.90
59282;DHT22;45054;52.062;10.010;2024-01-06T09:24:13;6.40;99.90
59282;DHT22;45054;52.062;10.010;2024-01-06T09:26:38;6.40;99.90
59282;DHT22;45054;52.062;10.010;2024-01-06T09:29:07;6.40;99.90
59282;DHT22;45054;52.062;10.010;2024-01-06T09:31:32;6.40;99.90
59282;DHT22;45054;52.062;10.010;2024-01-06T09:34:00;6.50;99.90
59282;DHT22;45054;52.062;10.010;2024-01-06T09:36:25;6.50;99.90
59282;DHT22;45054;52.062;10.010;2024-01-06T09:38:51;6.50;99.90
59282;DHT22;45054;52.062;10.010;2024-01-06T09:41:16;6.50;99.90
59282;DHT22;45054;52.062;10.010;2024-01-06T09:43:42;6.40;99.90
59282;DHT22;45054;52.062;10.010;2024-01-06T09:46:14;6.30;99.90
59282;DHT22;45054;52.062;10.010;2024-01-06T09:48:41;6.30;99.90
59282;DHT22;45054;52.062;10.010;2024-01-06T09:51:10;6.40;99.90
59282;DHT22;45054;52.062;10.010;2024-01-06T09:53:38;6.40;99.90
59282;DHT22;45054;52.062;10.010;2024-01-06T09:56:07;6.50;99.90
59282;DHT22;45054;52.062;10.010;2024-01-06T09:58:34;6.50;99.90
59282;DHT22;45054;52.062;10.010;2024-01-06T10:01:00;6.50;99.90
59282;DHT22;45054;52.062;10.010;2024-01-06T10:03:27;6.40;99.90
59282;DHT22;45054;52.062;10.010;2024-01-06T10:05:53;6.30;99.90
59282;DHT22;45054;52.062;10.010;2024-01-06T10:08:18;6.30;99.90
59282;DHT22;45054;52.062;10.010;2024-01-06T10:10:44;6.20;99.90
59282;DHT22;45054;52.062;10.010;2024-01-06T10:13:10;6.10;99.90
59282;DHT22;45054;52.062;10.010;2024-01-06T10:15:35;6.10;99.90
59282;DHT22;45054;52.062;10.010;2024-01-06T10:18:01;6.10;99.90
59282;DHT22;45054;52.062;10.010;2024-01-06T10:20:28;6.00;99.90
59282;DHT22;45054;52.062;10.010;2024-01-06T10:22:54;5.90;99.90
59282;DHT22;45054;52.062;10.010;2024-01-06T10:25:23;5.90;99.90
59282;DHT22;45054;52.062;10.010;2024-01-06T10:27:49;5.90;99.90
59282;DHT22;45054;52.062;10.010;2024-01-06T10:30:14;5.90;99.90
59282;DHT22;45054;52.062;10.010;2024-01-06T10:32:40;5.80;99.90
59282;DHT22;45054;52.062;10.010;2024-01-06T10:35:06;5.60;99.90
59282;DHT22;45054;52.062;10.010;2024-01-06T10:37:34;5.50;99.90
59282;DHT22;45054;52.062;10.010;2024-01-06T10:40:08;5.50;99.90
59282;DHT22;45054;52.062;10.010;2024-01-06T10:42:37;5.50;99.90
59282;DHT22;45054;52.062;10.010;2024-01-06T10:45:04;5.60;99.90
59282;DHT22;45054;52.062;10.010;2024-01-06T10:47:32;5.70;99.90
59282;DHT22;45054;52.062;10.010;2024-01-06T10:50:01;5.80;99.90
59282;DHT22;45054;52.062;10.010;2024-01-06T10:52:27;5.80;99.90
59282;DHT22;45054;52.062;10.010;2024-01-06T10:54:55;5.70;99.90
59282;DHT22;45054;52.062;10.010;2024-01-06T10:57:21;5.70;99.90
59282;DHT22;45054;52.062;10.010;2024-01-06T10:59:49;5.70;99.90
59282;DHT22;45054;52.062;10.010;2024-01-06T11:02:15;5.60;99.90
59282;DHT22;45054;52.062;10.010;2024-01-06T11:04:41;5.50;99.90
59282;DHT22;45054;52.062;10.010;2024-01-06T11:07:07;5.50;99.90
59282;DHT22;45054;52.062;10.010;2024-01-06T11:09:34;5.60;99.90
59282;DHT22;45054;52.062;10.010;2024-01-06T11:12:04;5.50;99.90
59282;DHT22;45054;52.062;10.010;2024-01-06T11:14:30;5.50;99.90
59282;DHT22;45054;52.062;10.010;2024-01-06T11:16:55;5.60;99.90
59282;DHT22;45054;52.062;10.010;2024-01-06T11:19:43;5.60;99.90
59282;DHT22;45054;52.062;10.010;2024-01-06T11:22:19;5.60;99.90
59282;DHT22;45054;52.062;10.010;2024-01-06T11:24:47;5.70;99.90
59282;DHT22;45054;52.062;10.010;2024-01-06T11:27:18;5.80;99.90
59282;DHT22;45054;52.062;10.010;2024-01-06T11:29:44;5.70;99.90
59282;DHT22;45054;52.062;10.010;2024-01-06T11:32:20;5.70;99.90
59282;DHT22;45054;52.062;10.010;2024-01-06T11:34:48;5.80;99.90
59282;DHT22;45054;52.062;10.010;2024-01-06T11:37:13;5.80;99.90
59282;DHT22;45054;52.062;10.010;2024-01-06T11:39:41;5.90;99.90
59282;DHT22;45054;52.062;10.010;2024-01-06T11:42:10;5.70;99.90
59282;DHT22;45054;52.062;10.010;2024-01-06T11:44:38;5.40;99.90
59282;DHT22;45054;52.062;10.010;2024-01-06T11:47:05;5.30;99.90
59282;DHT22;45054;52.062;10.010;2024-01-06T11:49:31;5.20;99.90
59282;DHT22;45054;52.062;10.010;2024-01-06T11:51:57;5.20;99.90
59282;DHT22;45054;52.062;10.010;2024-01-06T11:54:22;5.10;99.90
59282;DHT22;45054;52.062;10.010;2024-01-06T11:56:48;5.00;99.90
59282;DHT22;45054;52.062;10.010;2024-01-06T11:59:14;5.10;99.90
59282;DHT22;45054;52.062;10.010;2024-01-06T12:01:41;5.00;99.90
59282;DHT22;45054;52.062;10.010;2024-01-06T12:04:07;4.90;99.90
59282;DHT22;45054;52.062;10.010;2024-01-06T12:06:33;4.90;99.90
59282;DHT22;45054;52.062;10.010;2024-01-06T12:09:05;4.80;99.90
59282;DHT22;45054;52.062;10.010;2024-01-06T12:11:30;5.00;99.90
59282;DHT22;45054;52.062;10.010;2024-01-06T12:13:56;5.20;99.90
59282;DHT22;45054;52.062;10.010;2024-01-06T12:16:22;5.30;99.90
59282;DHT22;45054;52.062;10.010;2024-01-06T12:18:49;5.20;99.90
59282;DHT22;45054;52.062;10.010;2024-01-06T12:21:14;5.10;99.90
59282;DHT22;45054;52.062;10.010;2024-01-06T12:23:40;5.10;99.90
59282;DHT22;45054;52.062;10.010;2024-01-06T12:26:05;5.10;99.90
59282;DHT22;45054;52.062;10.010;2024-01-06T12:28:35;5.20;99.90
59282;DHT22;45054;52.062;10.010;2024-01-06T12:31:04;5.00;99.90
59282;DHT22;45054;52.062;10.010;2024-01-06T12:33:30;5.00;99.90
59282;DHT22;45054;52.062;10.010;2024-01-06T12:35:57;5.10;99.90
59282;DHT22;45054;52.062;10.010;2024-01-06T12:38:23;5.20;99.90
59282;DHT22;45054;52.062;10.010;2024-01-06T12:40:49;5.40;99.90
59282;DHT22;45054;52.062;10.010;2024-01-06T12:43:14;5.50;99.90
59282;DHT22;45054;52.062;10.010;2024-01-06T12:45:40;5.50;99.90
59282;DHT22;45054;52.062;10.010;2024-01-06T12:48:06;5.50;99.90
59282;DHT22;45054;52.062;10.010;2024-01-06T12:50:32;5.50;99.90
59282;DHT22;45054;52.062;10.010;2024-01-06T12:52:59;5.50;99.90
59282;DHT22;45054;52.062;10.010;2024-01-06T12:55:24;5.40;99.90
59282;DHT22;45054;52.062;10.010;2024-01-06T12:57:50;5.50;99.90
59282;DHT22;45054;52.062;10.010;2024-01-06T13:00:16;5.50;99.90
59282;DHT22;45054;52.062;10.010;2024-01-06T13:02:42;5.40;99.90
59282;DHT22;45054;52.062;10.010;2024-01-06T13:05:08;5.40;99.90
59282;DHT22;45054;52.062;10.010;2024-01-06T13:07:34;5.40;99.90
59282;DHT22;45054;52.062;10.010;2024-01-06T13:10:02;5.50;99.90
59282;DHT22;45054;52.062;10.010;2024-01-06T13:12:27;5.50;99.90
59282;DHT22;45054;52.062;10.010;2024-01-06T13:14:53;5.40;99.90
59282;DHT22;45054;52.062;10.010;2024-01-06T13:17:18;5.50;99.90
59282;DHT22;45054;52.062;10.010;2024-01-06T13:19:44;5.50;99.90
59282;DHT22;45054;52.062;10.010;2024-01-06T13:22:10;5.40;99.90
59282;DHT22;45054;52.062;10.010;2024-01-06T13:24:35;5.40;99.90
59282;DHT22;45054;52.062;10.010;2024-01-06T13:27:02;5.30;99.90
59282;DHT22;45054;52.062;10.010;2024-01-06T13:29:28;5.30;99.90
59282;DHT22;45054;52.062;10.010;2024-01-06T13:31:54;5.30;99.90
59282;DHT22;45054;52.062;10.010;2024-01-06T13:34:19;5.20;99.90
59282;DHT22;45054;52.062;10.010;2024-01-06T13:36:45;5.20;99.90
59282;DHT22;45054;52.062;10.010;2024-01-06T13:39:10;5.20;99.90
59282;DHT22;45054;52.062;10.010;2024-01-06T13:41:36;5.20;99.90
59282;DHT22;45054;52.062;10.010;2024-01-06T13:44:03;5.20;99.90
59282;DHT22;45054;52.062;10.010;2024-01-06T13:46:29;5.20;99.90
59282;DHT22;45054;52.062;10.010;2024-01-06T13:48:54;5.20;99.90
59282;DHT22;45054;52.062;10.010;2024-01-06T13:51:20;5.20;99.90
59282;DHT22;45054;52.062;10.010;2024-01-06T13:53:46;5.00;99.90
59282;DHT22;45054;52.062;10.010;2024-01-06T13:56:11;5.00;99.90
59282;DHT22;45054;52.062;10.010;2024-01-06T13:58:37;5.00;99.90
59282;DHT22;45054;52.062;10.010;2024-01-06T14:01:04;5.00;99.90
59282;DHT22;45054;52.062;10.010;2024-01-06T14:03:29;5.00;99.90
59282;DHT22;45054;52.062;10.010;2024-01-06T14:05:55;5.00;99.90
59282;DHT22;45054;52.062;10.010;2024-01-06T14:08:21;4.80;99.90
59282;DHT22;45054;52.062;10.010;2024-01-06T14:10:46;4.70;99.90
59282;DHT22;45054;52.062;10.010;2024-01-06T14:13:12;4.70;99.90
59282;DHT22;45054;52.062;10.010;2024-01-06T14:15:37;4.70;99.90
59282;DHT22;45054;52.062;10.010;2024-01-06T14:18:04;4.60;99.90
59282;DHT22;45054;52.062;10.010;2024-01-06T14:20:30;4.60;99.90
59282;DHT22;45054;52.062;10.010;2024-01-06T14:22:56;4.70;99.90
59282;DHT22;45054;52.062;10.010;2024-01-06T14:25:21;4.70;99.90
59282;DHT22;45054;52.062;10.010;2024-01-06T14:27:47;4.70;99.90
59282;DHT22;45054;52.062;10.010;2024-01-06T14:30:12;4.70;99.90
59282;DHT22;45054;52.062;10.010;2024-01-06T14:32:38;4.70;99.90
59282;DHT22;45054;52.062;10.010;2024-01-06T14:35:06;4.80;99.90
59282;DHT22;45054;52.062;10.010;2024-01-06T14:37:31;4.70;99.90
59282;DHT22;45054;52.062;10.010;2024-01-06T14:39:57;4.70;99.90
59282;DHT22;45054;52.062;10.010;2024-01-06T14:42:22;4.70;99.90
59282;DHT22;45054;52.062;10.010;2024-01-06T14:44:48;4.70;99.90
59282;DHT22;45054;52.062;10.010;2024-01-06T14:47:13;4.50;99.90
59282;DHT22;45054;52.062;10.010;2024-01-06T14:49:39;4.30;99.90
59282;DHT22;45054;52.062;10.010;2024-01-06T14:52:06;4.10;99.90
59282;DHT22;45054;52.062;10.010;2024-01-06T14:54:32;4.00;99.90
59282;DHT22;45054;52.062;10.010;2024-01-06T14:56:57;3.90;99.90
59282;DHT22;45054;52.062;10.010;2024-01-06T14:59:23;3.80;99.90
59282;DHT22;45054;52.062;10.010;2024-01-06T15:01:48;3.70;99.90
59282;DHT22;45054;52.062;10.010;2024-01-06T15:04:14;3.60;99.90
59282;DHT22;45054;52.062;10.010;2024-01-06T15:06:39;3.60;99.90
59282;DHT22;45054;52.062;10.010;2024-01-06T15:09:06;3.80;99.90
59282;DHT22;45054;52.062;10.010;2024-01-06T15:11:32;4.00;99.90
59282;DHT22;45054;52.062;10.010;2024-01-06T15:13:57;4.10;99.90
59282;DHT22;45054;52.062;10.010;2024-01-06T15:16:23;3.90;99.90
59282;DHT22;45054;52.062;10.010;2024-01-06T15:18:48;3.90;99.90
59282;DHT22;45054;52.062;10.010;2024-01-06T15:21:14;4.00;99.90